Lake Hughes, California
Current Conditions -  °F | °C
As of 1:56 AM on Sunday 25 Jan 2015 (Local Time) from KWJF Reporting Station
Clear Clear  
Wind Chill: 32°   Ceiling: Unl
Heat Index: 32°   Visibility: 10mi
Dew Point: 25°   Wind: 3mph
Humidity: 75%   Direction: 250°WSW
Pressure: 30.23"   Gusts: NA
Location:  34.68°N, 118.45°W
Report Text: KWJF 250956Z AUTO 25003KT 10SM CLR 00/M04 A3023 RMK AO2 SLP240 T00001039
Loading
Personal Weather Stations






























Interactive Weather Map New forecast layout! Learn more

10-Day Weather Forecast

Advertisements
Track Severe Weather on mobile